ADDS METAR Data INFO
IDs: Format: Raw Decoded Include TAF

Data at: 1143 UTC 23 Jun 2018

PABI 231053Z AUTO 30004KT 9SM -RA OVC060 12/11 A3006 RMK AO2 RAB33 SLP182 P0001 T01170106 TSNO $
PABI 230953Z AUTO 25007KT 10SM SCT044 SCT050 OVC060 13/11 A3005 RMK AO2 SLP178 T01280106 TSNO $
PABI 230853Z AUTO 21006KT 10SM OVC070 13/11 A3004 RMK AO2 RAB12E47 SLP174 P0000 60000 T01330111 401890122 51010 TSNO $
PABI 230753Z AUTO 20006KT 10SM FEW055 OVC070 13/11 A3003 RMK AO2 SLP172 T01330111 TSNO $
PABI 230653Z AUTO 19004KT 10SM BKN060 OVC075 15/11 A3002 RMK AO2 RAB22E34 SLP166 P0000 T01500106 TSNO $
PABI 230553Z AUTO 36003KT 10SM SCT065 BKN080 16/11 A3001 RMK AO2 SLP163 T01560106 10189 20156 53013 TSNO $
PABI 230453Z 34011KT 10SM FEW065 BKN080 BKN110 16/09 A3000 RMK AO2 SLP160 SHRA VC N/SE-SW T01610094 $
PABI 230353Z 33006KT 10SM FEW065 SCT075 BKN110 18/08 A2998 RMK AO2 SLP151 SHRA DSNT ALQDS T01780083 $
PABI 230253Z 33010KT 10SM SCT065 SCT080 BKN100 18/08 A2997 RMK AO2 SLP148 SHRA VC N DSNT ALQDS T01830078 $
PABI 230153Z COR 31007KT 10SM SCT075 BKN095 18/09 A2996 RMK AO2 SLP146 SHRA VC S DSNT NW-NE T01830089 $
PABI 230053Z 21009KT 10SM FEW041 SCT080 OVC100 17/11 A2995 RMK AO2 SLP145 SHRA VC S-W VIRGA VC N-E T01720106
PABI 222353Z 31010KT 10SM FEW020 BKN075 BKN100 18/09 A2994 RMK SLP141 SHRA VC SW-W T01780089 10189 20156 51001 VIA AUTODIAL
PABI 222253Z VRB05KT 10SM BKN065 BKN100 18/09 A2994 RMK AO2 SLP140 SHRA DSNT SW-W T01830089
PABI 222153Z 01010KT 10SM SCT045 BKN070 BKN110 BKN200 17/11 A2995 RMK AO2 SLP141 T01720106
PABI 222053Z 36012KT 10SM SCT045 BKN080 BKN110 BKN200 17/12 A2994 RMK AO2 WSHFT 2021 SLP141 T01670117 53007
PABI 222041Z 35011KT 10SM SCT045 BKN080 BKN110 BKN200 17/09 A2994 RMK AO2 WSHFT 2021 SHRA DSNT NW T01670089
PABI 221953Z 35009KT 10SM FEW045 BKN080 BKN090 BKN200 17/08 A2993 RMK AO2 SLP134 SHRA DSNT W-N T01670078
PABI 221853Z 34010KT 10SM FEW015 BKN040 BKN055 17/10 A2992 RMK AO2 SLP132 SHRA VC W-N T01670100
PABI 221753Z 35004KT 10SM FEW004 BKN042 OVC055 16/10 A2992 RMK AO2 SLP129 SHRA VC NW-NE/ BINOVC DSNT S 60000 T01560100 10156 20122 51013
PABI 221653Z 02005KT 10SM FEW004 BKN042 OVC050 14/08 A2991 RMK AO2 SLP127 SHRA VC N-NE/ BINOVC DSNT S T01440083
PABI 221553Z 27005KT 10SM FEW002 BKN042 OVC050 14/11 A2990 RMK AO2 RAB22E33 SLP123 SHRA VC N-E P0000 T01390106
PABI 221453Z 20003KT 10SM BKN048 OVC100 13/12 A2988 RMK AO2 SLP115 T01330122 51014
PABI 221353Z AUTO 29005KT 10SM OVC065 12/12 A2987 RMK AO2 SLP111 T01220122 TSNO
PABI 221253Z AUTO 29003KT 10SM BKN120 13/13 A2985 RMK AO2 SLP105 T01280128 TSNO
PABI 221153Z AUTO 00000KT 10SM BKN095 OVC110 13/13 A2984 RMK SLP098 60006 70006 T01330128 10194 20128 53012 TSNO VIA AUTODIAL
PABI 221053Z AUTO 06003KT 10SM OVC080 13/13 A2981 RMK AO2 RAE26 SLP090 P0000 T01330128 TSNO
PABI 220953Z AUTO 02005KT 10SM -RA OVC075 14/13 A2980 RMK AO2 SLP086 P0001 T01390128 TSNO
PABI 220853Z AUTO 02007KT 10SM -RA FEW055 OVC075 13/13 A2980 RMK AO2 SLP087 P0003 60005 T01330128 402670133 51026 TSNO
PABI 220753Z AUTO 17010KT 10SM -RA OVC065 15/11 A2978 RMK AO2 SLP078 P0002 T01500111 TSNO
PABI 220653Z AUTO 19016KT 9SM -RA OVC070 17/10 A2975 RMK AO2 RAB24 SLP067 P0000 T01670100 TSNO
PABI 220553Z AUTO 22015KT 10SM FEW075 OVC100 19/05 A2972 RMK AO2 PK WND 20029/0458 RAB22E31 SLP056 P0000 60000 T01940050 10261 20194 53017 TSNO
PABI 220453Z 20024G32KT 10SM FEW065 SCT090 BKN110 OVC160 20/05 A2969 RMK AO2 PK WND 19036/0411 SLP048 SHRA DSNT NE/W-NW/ BLDU VC N T02000050
PABI 220353Z 20024G33KT 10SM FEW065 SCT090 BKN110 OVC160 22/06 A2967 RMK AO2 PK WND 19034/0256 SLP042 SHRA DSNT W-NW BLDU VC N ACSL DSNT E T02170061
PABI 220253Z 19022G31KT 10SM FEW065 SCT090 BKN110 OVC160 23/07 A2967 RMK AO2 PK WND 19031/0253 SLP042 SHRA DSNT N/NE/NW BLDU VC N-NE ACSL DSNT E T02280067 53000
PABI 220153Z 20019G28KT 10SM FEW065 SCT090 BKN120 OVC160 24/08 A2966 RMK AO2 PK WND 18030/0140 SLP038 SHRA DSNT N-NE/NW T02440078
PABI 220053Z 21012KT 10SM FEW065 SCT090 BKN120 BKN200 26/06 A2966 RMK AO2 SLP036 SHRA DSNT N VIRGA DSNT N-NE/E-SE/S T02560056
PABI 212353Z 21009KT 10SM FEW065 SCT090 BKN120 BKN200 26/06 A2967 RMK AO2 SLP038 SHRA DSNT N/NE VIRGA DSNT N/NE/E/W ACSL DSNT N-NE T02610056 10267 20239 56009